sensor_id;sensor_type;location;lat;lon;timestamp;pressure;altitude;pressure_sealevel;temperature;humidity
61761;BME280;47664;51.660;-0.100;2023-02-20T00:00:58;101906.99;;;5.64;65.25
61761;BME280;47664;51.660;-0.100;2023-02-20T00:03:30;101905.87;;;5.46;65.54
61761;BME280;47664;51.660;-0.100;2023-02-20T00:06:03;101900.27;;;5.84;65.46
61761;BME280;47664;51.660;-0.100;2023-02-20T00:08:34;101900.35;;;5.77;65.10
61761;BME280;47664;51.660;-0.100;2023-02-20T00:11:07;101899.79;;;5.71;65.88
61761;BME280;47664;51.660;-0.100;2023-02-20T00:13:42;101898.85;;;5.81;64.97
61761;BME280;47664;51.660;-0.100;2023-02-20T00:16:15;101895.14;;;5.84;64.30
61761;BME280;47664;51.660;-0.100;2023-02-20T00:18:48;101892.72;;;6.01;64.45
61761;BME280;47664;51.660;-0.100;2023-02-20T00:21:20;101892.81;;;5.53;65.69
61761;BME280;47664;51.660;-0.100;2023-02-20T00:23:53;101886.85;;;5.85;65.07
61761;BME280;47664;51.660;-0.100;2023-02-20T00:26:25;101882.06;;;5.81;65.07
61761;BME280;47664;51.660;-0.100;2023-02-20T00:28:57;101878.55;;;6.00;64.47
61761;BME280;47664;51.660;-0.100;2023-02-20T00:31:29;101875.73;;;5.82;64.11
61761;BME280;47664;51.660;-0.100;2023-02-20T00:34:01;101873.39;;;5.48;65.02
61761;BME280;47664;51.660;-0.100;2023-02-20T00:36:34;101874.74;;;5.71;64.35
61761;BME280;47664;51.660;-0.100;2023-02-20T00:39:06;101869.63;;;5.47;65.33
61761;BME280;47664;51.660;-0.100;2023-02-20T00:41:38;101870.66;;;5.62;65.25
61761;BME280;47664;51.660;-0.100;2023-02-20T00:44:10;101868.57;;;5.76;64.84
61761;BME280;47664;51.660;-0.100;2023-02-20T00:46:42;101861.49;;;5.73;65.06
61761;BME280;47664;51.660;-0.100;2023-02-20T00:49:16;101868.63;;;5.97;64.41
61761;BME280;47664;51.660;-0.100;2023-02-20T00:51:47;101869.83;;;5.81;64.73
61761;BME280;47664;51.660;-0.100;2023-02-20T00:54:20;101864.88;;;6.13;63.94
61761;BME280;47664;51.660;-0.100;2023-02-20T00:56:52;101865.78;;;5.94;64.24
61761;BME280;47664;51.660;-0.100;2023-02-20T00:59:24;101862.82;;;5.99;64.62
61761;BME280;47664;51.660;-0.100;2023-02-20T01:01:57;101865.51;;;5.47;66.28
61761;BME280;47664;51.660;-0.100;2023-02-20T01:04:29;101866.49;;;5.91;65.36
61761;BME280;47664;51.660;-0.100;2023-02-20T01:07:02;101860.61;;;5.51;65.33
61761;BME280;47664;51.660;-0.100;2023-02-20T01:09:34;101854.91;;;6.04;64.42
61761;BME280;47664;51.660;-0.100;2023-02-20T01:12:06;101853.20;;;6.03;64.54
61761;BME280;47664;51.660;-0.100;2023-02-20T01:14:38;101852.32;;;5.69;64.94
61761;BME280;47664;51.660;-0.100;2023-02-20T01:17:11;101844.11;;;5.68;64.92
61761;BME280;47664;51.660;-0.100;2023-02-20T01:19:43;101846.68;;;5.75;65.63
61761;BME280;47664;51.660;-0.100;2023-02-20T01:22:15;101841.57;;;6.20;64.37
61761;BME280;47664;51.660;-0.100;2023-02-20T01:24:47;101835.02;;;5.98;64.84
61761;BME280;47664;51.660;-0.100;2023-02-20T01:27:20;101839.03;;;5.89;64.99
61761;BME280;47664;51.660;-0.100;2023-02-20T01:29:51;101827.30;;;5.66;65.70
61761;BME280;47664;51.660;-0.100;2023-02-20T01:32:24;101826.32;;;5.76;65.87
61761;BME280;47664;51.660;-0.100;2023-02-20T01:34:56;101827.01;;;6.24;64.85
61761;BME280;47664;51.660;-0.100;2023-02-20T01:37:28;101829.70;;;6.45;63.83
61761;BME280;47664;51.660;-0.100;2023-02-20T01:40:01;101821.50;;;6.11;64.79
61761;BME280;47664;51.660;-0.100;2023-02-20T01:42:34;101822.05;;;6.22;64.76
61761;BME280;47664;51.660;-0.100;2023-02-20T01:45:27;101823.29;;;6.32;63.84
61761;BME280;47664;51.660;-0.100;2023-02-20T01:48:02;101820.27;;;6.02;64.91
61761;BME280;47664;51.660;-0.100;2023-02-20T01:50:38;101824.69;;;6.14;64.46
61761;BME280;47664;51.660;-0.100;2023-02-20T01:53:14;101820.16;;;6.24;64.76
61761;BME280;47664;51.660;-0.100;2023-02-20T01:55:50;101820.29;;;6.74;63.34
61761;BME280;47664;51.660;-0.100;2023-02-20T01:58:25;101815.69;;;7.02;61.99
61761;BME280;47664;51.660;-0.100;2023-02-20T02:01:00;101813.29;;;7.19;61.41
61761;BME280;47664;51.660;-0.100;2023-02-20T02:03:32;101807.58;;;6.69;62.30
61761;BME280;47664;51.660;-0.100;2023-02-20T02:06:08;101813.39;;;6.04;64.13
61761;BME280;47664;51.660;-0.100;2023-02-20T02:08:42;101816.79;;;6.42;64.06
61761;BME280;47664;51.660;-0.100;2023-02-20T02:11:17;101814.76;;;6.88;63.11
61761;BME280;47664;51.660;-0.100;2023-02-20T02:13:49;101806.89;;;7.04;62.12
61761;BME280;47664;51.660;-0.100;2023-02-20T02:16:32;101809.18;;;6.79;62.59
61761;BME280;47664;51.660;-0.100;2023-02-20T02:19:10;101806.98;;;6.06;63.32
61761;BME280;47664;51.660;-0.100;2023-02-20T02:24:49;101801.81;;;7.25;63.70
61761;BME280;47664;51.660;-0.100;2023-02-20T02:27:51;101797.98;;;7.18;62.54
61761;BME280;47664;51.660;-0.100;2023-02-20T02:31:01;101792.24;;;6.80;63.02
61761;BME280;47664;51.660;-0.100;2023-02-20T02:33:52;101792.62;;;6.45;65.12
61761;BME280;47664;51.660;-0.100;2023-02-20T02:36:35;101794.37;;;6.60;64.83
61761;BME280;47664;51.660;-0.100;2023-02-20T02:39:14;101788.39;;;6.35;64.82
61761;BME280;47664;51.660;-0.100;2023-02-20T02:41:48;101784.53;;;6.41;64.80
61761;BME280;47664;51.660;-0.100;2023-02-20T02:44:26;101783.34;;;6.67;64.91
61761;BME280;47664;51.660;-0.100;2023-02-20T02:47:04;101780.78;;;5.96;66.12
61761;BME280;47664;51.660;-0.100;2023-02-20T02:49:44;101777.05;;;6.37;66.62
61761;BME280;47664;51.660;-0.100;2023-02-20T02:52:20;101771.78;;;6.16;67.22
61761;BME280;47664;51.660;-0.100;2023-02-20T02:54:55;101766.80;;;5.98;68.30
61761;BME280;47664;51.660;-0.100;2023-02-20T02:57:28;101772.81;;;5.88;68.09
61761;BME280;47664;51.660;-0.100;2023-02-20T02:59:59;101769.09;;;5.92;68.61
61761;BME280;47664;51.660;-0.100;2023-02-20T03:02:30;101769.75;;;5.92;68.40
61761;BME280;47664;51.660;-0.100;2023-02-20T03:05:06;101764.70;;;5.73;68.93
61761;BME280;47664;51.660;-0.100;2023-02-20T03:07:42;101766.98;;;5.99;68.39
61761;BME280;47664;51.660;-0.100;2023-02-20T03:10:19;101765.87;;;5.82;68.69
61761;BME280;47664;51.660;-0.100;2023-02-20T03:12:50;101765.34;;;5.90;68.41
61761;BME280;47664;51.660;-0.100;2023-02-20T03:15:22;101765.91;;;6.19;67.50
61761;BME280;47664;51.660;-0.100;2023-02-20T03:18:17;101768.09;;;6.50;67.63
61761;BME280;47664;51.660;-0.100;2023-02-20T03:20:53;101766.11;;;6.27;68.03
61761;BME280;47664;51.660;-0.100;2023-02-20T03:23:28;101768.41;;;6.21;66.99
61761;BME280;47664;51.660;-0.100;2023-02-20T03:26:04;101762.26;;;6.36;66.96
61761;BME280;47664;51.660;-0.100;2023-02-20T03:28:37;101770.57;;;6.36;67.29
61761;BME280;47664;51.660;-0.100;2023-02-20T03:31:14;101772.97;;;6.04;67.91
61761;BME280;47664;51.660;-0.100;2023-02-20T03:33:51;101766.22;;;6.61;67.73
61761;BME280;47664;51.660;-0.100;2023-02-20T03:36:29;101764.75;;;6.51;67.79
61761;BME280;47664;51.660;-0.100;2023-02-20T03:39:06;101772.26;;;5.76;69.36
61761;BME280;47664;51.660;-0.100;2023-02-20T03:41:36;101775.21;;;6.40;68.74
61761;BME280;47664;51.660;-0.100;2023-02-20T03:44:10;101776.12;;;5.69;69.64
61761;BME280;47664;51.660;-0.100;2023-02-20T03:46:45;101772.90;;;6.06;69.33
61761;BME280;47664;51.660;-0.100;2023-02-20T03:49:18;101774.07;;;5.86;69.08
61761;BME280;47664;51.660;-0.100;2023-02-20T03:51:51;101766.92;;;6.28;68.77
61761;BME280;47664;51.660;-0.100;2023-02-20T03:54:23;101767.40;;;5.96;68.99
61761;BME280;47664;51.660;-0.100;2023-02-20T03:56:55;101761.31;;;6.40;68.38
61761;BME280;47664;51.660;-0.100;2023-02-20T03:59:31;101762.94;;;5.87;70.69
61761;BME280;47664;51.660;-0.100;2023-02-20T04:02:07;101760.22;;;5.74;70.54
61761;BME280;47664;51.660;-0.100;2023-02-20T04:04:43;101762.34;;;6.11;69.86
61761;BME280;47664;51.660;-0.100;2023-02-20T04:07:20;101763.70;;;5.84;69.21
61761;BME280;47664;51.660;-0.100;2023-02-20T04:09:57;101759.96;;;6.52;68.19
61761;BME280;47664;51.660;-0.100;2023-02-20T04:12:33;101762.69;;;6.38;68.91
61761;BME280;47664;51.660;-0.100;2023-02-20T04:15:08;101761.02;;;6.14;68.82
61761;BME280;47664;51.660;-0.100;2023-02-20T04:17:41;101758.80;;;6.44;69.26
61761;BME280;47664;51.660;-0.100;2023-02-20T04:20:16;101762.88;;;5.89;69.26
61761;BME280;47664;51.660;-0.100;2023-02-20T04:22:47;101765.69;;;6.30;69.18
61761;BME280;47664;51.660;-0.100;2023-02-20T04:25:30;101763.21;;;6.64;68.93
61761;BME280;47664;51.660;-0.100;2023-02-20T04:28:04;101762.06;;;6.02;68.74
61761;BME280;47664;51.660;-0.100;2023-02-20T04:30:36;101761.31;;;6.46;69.36
61761;BME280;47664;51.660;-0.100;2023-02-20T04:33:09;101770.98;;;6.03;69.42
61761;BME280;47664;51.660;-0.100;2023-02-20T04:35:42;101773.00;;;6.37;70.18
61761;BME280;47664;51.660;-0.100;2023-02-20T04:38:14;101772.93;;;6.48;69.45
61761;BME280;47664;51.660;-0.100;2023-02-20T04:40:47;101773.23;;;6.21;70.44
61761;BME280;47664;51.660;-0.100;2023-02-20T04:43:19;101776.37;;;5.87;71.29
61761;BME280;47664;51.660;-0.100;2023-02-20T04:45:51;101778.28;;;6.03;71.40
61761;BME280;47664;51.660;-0.100;2023-02-20T04:48:23;101781.81;;;6.07;70.88
61761;BME280;47664;51.660;-0.100;2023-02-20T04:50:55;101777.61;;;5.83;71.72
61761;BME280;47664;51.660;-0.100;2023-02-20T04:53:28;101776.20;;;6.08;71.63
61761;BME280;47664;51.660;-0.100;2023-02-20T04:56:00;101780.61;;;5.94;71.33
61761;BME280;47664;51.660;-0.100;2023-02-20T04:58:32;101780.16;;;6.05;71.68
61761;BME280;47664;51.660;-0.100;2023-02-20T05:01:04;101773.68;;;5.53;72.27
61761;BME280;47664;51.660;-0.100;2023-02-20T05:03:37;101773.06;;;5.75;72.89
61761;BME280;47664;51.660;-0.100;2023-02-20T05:06:09;101773.48;;;5.78;73.11
61761;BME280;47664;51.660;-0.100;2023-02-20T05:08:41;101774.47;;;5.85;73.18
61761;BME280;47664;51.660;-0.100;2023-02-20T05:11:13;101775.19;;;5.54;73.20
61761;BME280;47664;51.660;-0.100;2023-02-20T05:13:45;101784.05;;;6.03;73.29
61761;BME280;47664;51.660;-0.100;2023-02-20T05:16:18;101790.62;;;5.96;73.10
61761;BME280;47664;51.660;-0.100;2023-02-20T05:18:50;101789.04;;;5.80;73.61
61761;BME280;47664;51.660;-0.100;2023-02-20T05:21:22;101786.58;;;5.53;73.69
61761;BME280;47664;51.660;-0.100;2023-02-20T05:23:54;101790.91;;;6.23;72.77
61761;BME280;47664;51.660;-0.100;2023-02-20T05:26:26;101793.63;;;6.15;71.67
61761;BME280;47664;51.660;-0.100;2023-02-20T05:28:59;101794.37;;;6.41;71.21
61761;BME280;47664;51.660;-0.100;2023-02-20T05:31:36;101802.18;;;6.37;70.85
61761;BME280;47664;51.660;-0.100;2023-02-20T05:34:08;101798.37;;;6.00;69.99
61761;BME280;47664;51.660;-0.100;2023-02-20T05:36:40;101799.81;;;6.67;70.52
61761;BME280;47664;51.660;-0.100;2023-02-20T05:39:12;101801.59;;;6.08;71.07
61761;BME280;47664;51.660;-0.100;2023-02-20T05:41:44;101798.78;;;6.05;71.92
61761;BME280;47664;51.660;-0.100;2023-02-20T05:44:17;101800.08;;;6.54;71.63
61761;BME280;47664;51.660;-0.100;2023-02-20T05:46:49;101800.35;;;6.33;71.57
61761;BME280;47664;51.660;-0.100;2023-02-20T05:49:21;101794.20;;;6.42;71.69
61761;BME280;47664;51.660;-0.100;2023-02-20T05:51:54;101798.58;;;6.36;70.65
61761;BME280;47664;51.660;-0.100;2023-02-20T05:54:27;101792.21;;;6.43;70.71
61761;BME280;47664;51.660;-0.100;2023-02-20T05:57:00;101784.21;;;6.53;71.30
61761;BME280;47664;51.660;-0.100;2023-02-20T05:59:32;101787.10;;;6.48;72.13
61761;BME280;47664;51.660;-0.100;2023-02-20T06:02:05;101795.74;;;5.95;72.19
61761;BME280;47664;51.660;-0.100;2023-02-20T06:04:37;101795.62;;;6.28;71.75
61761;BME280;47664;51.660;-0.100;2023-02-20T06:07:07;101799.49;;;5.85;71.95
61761;BME280;47664;51.660;-0.100;2023-02-20T06:09:40;101800.86;;;6.73;71.75
61761;BME280;47664;51.660;-0.100;2023-02-20T06:12:13;101799.63;;;6.02;72.03
61761;BME280;47664;51.660;-0.100;2023-02-20T06:14:45;101788.06;;;6.70;70.82
61761;BME280;47664;51.660;-0.100;2023-02-20T06:17:17;101775.57;;;6.48;71.82
61761;BME280;47664;51.660;-0.100;2023-02-20T06:19:49;101773.41;;;6.73;71.09
61761;BME280;47664;51.660;-0.100;2023-02-20T06:22:22;101769.44;;;6.45;71.11
61761;BME280;47664;51.660;-0.100;2023-02-20T06:24:52;101768.84;;;6.41;71.91
61761;BME280;47664;51.660;-0.100;2023-02-20T06:27:25;101773.70;;;6.02;71.64
61761;BME280;47664;51.660;-0.100;2023-02-20T06:29:57;101773.59;;;6.46;71.86
61761;BME280;47664;51.660;-0.100;2023-02-20T06:32:29;101775.67;;;6.20;72.58
61761;BME280;47664;51.660;-0.100;2023-02-20T06:35:02;101767.65;;;6.12;72.39
61761;BME280;47664;51.660;-0.100;2023-02-20T06:37:34;101766.84;;;6.09;72.60
61761;BME280;47664;51.660;-0.100;2023-02-20T06:40:08;101762.54;;;5.84;72.18
61761;BME280;47664;51.660;-0.100;2023-02-20T06:42:41;101763.40;;;6.30;72.53
61761;BME280;47664;51.660;-0.100;2023-02-20T06:45:13;101764.89;;;6.03;72.26
61761;BME280;47664;51.660;-0.100;2023-02-20T06:47:45;101759.39;;;5.79;73.72
61761;BME280;47664;51.660;-0.100;2023-02-20T06:50:17;101767.08;;;5.79;73.68
61761;BME280;47664;51.660;-0.100;2023-02-20T06:52:49;101768.87;;;5.92;73.28
61761;BME280;47664;51.660;-0.100;2023-02-20T06:55:21;101767.98;;;5.86;73.13
61761;BME280;47664;51.660;-0.100;2023-02-20T06:57:54;101756.21;;;6.47;71.73
61761;BME280;47664;51.660;-0.100;2023-02-20T07:00:26;101761.16;;;5.99;72.63
61761;BME280;47664;51.660;-0.100;2023-02-20T07:02:58;101758.77;;;6.27;72.39
61761;BME280;47664;51.660;-0.100;2023-02-20T07:05:30;101747.22;;;6.34;72.86
61761;BME280;47664;51.660;-0.100;2023-02-20T07:08:02;101744.76;;;6.68;71.59
61761;BME280;47664;51.660;-0.100;2023-02-20T07:10:34;101734.22;;;6.67;71.75
61761;BME280;47664;51.660;-0.100;2023-02-20T07:13:07;101734.32;;;5.81;71.65
61761;BME280;47664;51.660;-0.100;2023-02-20T07:15:39;101730.93;;;6.59;70.93
61761;BME280;47664;51.660;-0.100;2023-02-20T07:18:11;101734.72;;;6.51;71.58
61761;BME280;47664;51.660;-0.100;2023-02-20T07:20:44;101731.81;;;6.57;71.90
61761;BME280;47664;51.660;-0.100;2023-02-20T07:23:16;101736.55;;;6.14;71.62
61761;BME280;47664;51.660;-0.100;2023-02-20T07:25:48;101736.13;;;6.38;71.97
61761;BME280;47664;51.660;-0.100;2023-02-20T07:28:21;101735.98;;;6.39;71.93
61761;BME280;47664;51.660;-0.100;2023-02-20T07:30:53;101737.09;;;6.52;71.72
61761;BME280;47664;51.660;-0.100;2023-02-20T07:33:25;101738.97;;;5.98;71.73
61761;BME280;47664;51.660;-0.100;2023-02-20T07:35:57;101740.70;;;6.46;71.75
61761;BME280;47664;51.660;-0.100;2023-02-20T07:38:29;101749.02;;;6.28;72.61
61761;BME280;47664;51.660;-0.100;2023-02-20T07:41:02;101741.69;;;5.93;72.49
61761;BME280;47664;51.660;-0.100;2023-02-20T07:43:34;101747.06;;;6.49;71.84
61761;BME280;47664;51.660;-0.100;2023-02-20T07:46:07;101748.78;;;5.51;71.74
61761;BME280;47664;51.660;-0.100;2023-02-20T07:48:39;101750.40;;;6.35;72.08
61761;BME280;47664;51.660;-0.100;2023-02-20T07:51:11;101750.56;;;6.23;71.34
61761;BME280;47664;51.660;-0.100;2023-02-20T07:53:46;101752.35;;;6.40;71.40
61761;BME280;47664;51.660;-0.100;2023-02-20T07:56:18;101752.16;;;6.40;71.52
61761;BME280;47664;51.660;-0.100;2023-02-20T07:58:51;101756.02;;;6.46;71.23
61761;BME280;47664;51.660;-0.100;2023-02-20T08:01:23;101758.85;;;6.43;71.00
61761;BME280;47664;51.660;-0.100;2023-02-20T08:03:55;101762.89;;;6.84;70.79
61761;BME280;47664;51.660;-0.100;2023-02-20T08:06:27;101754.65;;;6.76;70.43
61761;BME280;47664;51.660;-0.100;2023-02-20T08:09:00;101759.35;;;6.79;70.73
61761;BME280;47664;51.660;-0.100;2023-02-20T08:11:32;101769.50;;;6.87;70.39
61761;BME280;47664;51.660;-0.100;2023-02-20T08:14:05;101767.83;;;6.49;70.14
61761;BME280;47664;51.660;-0.100;2023-02-20T08:16:37;101768.03;;;6.99;70.38
61761;BME280;47664;51.660;-0.100;2023-02-20T08:19:10;101758.59;;;6.66;69.11
61761;BME280;47664;51.660;-0.100;2023-02-20T08:21:42;101762.81;;;6.63;71.17
61761;BME280;47664;51.660;-0.100;2023-02-20T08:24:14;101770.23;;;6.55;70.07
61761;BME280;47664;51.660;-0.100;2023-02-20T08:26:47;101769.02;;;6.86;69.73
61761;BME280;47664;51.660;-0.100;2023-02-20T08:29:20;101765.51;;;6.74;70.04
61761;BME280;47664;51.660;-0.100;2023-02-20T08:31:53;101771.02;;;6.94;70.09
61761;BME280;47664;51.660;-0.100;2023-02-20T08:34:25;101771.99;;;6.88;70.35
61761;BME280;47664;51.660;-0.100;2023-02-20T08:36:57;101776.18;;;7.09;69.68
61761;BME280;47664;51.660;-0.100;2023-02-20T08:39:29;101775.42;;;6.98;70.17
61761;BME280;47664;51.660;-0.100;2023-02-20T08:42:02;101784.96;;;6.50;70.61
61761;BME280;47664;51.660;-0.100;2023-02-20T08:44:33;101779.90;;;7.04;71.02
61761;BME280;47664;51.660;-0.100;2023-02-20T08:47:06;101773.45;;;6.58;70.11
61761;BME280;47664;51.660;-0.100;2023-02-20T08:49:38;101775.73;;;7.28;68.17
61761;BME280;47664;51.660;-0.100;2023-02-20T08:52:10;101781.89;;;7.31;67.50
61761;BME280;47664;51.660;-0.100;2023-02-20T08:54:43;101770.16;;;7.14;68.95
61761;BME280;47664;51.660;-0.100;2023-02-20T08:57:16;101782.54;;;7.13;68.67
61761;BME280;47664;51.660;-0.100;2023-02-20T08:59:49;101775.36;;;7.18;68.78
61761;BME280;47664;51.660;-0.100;2023-02-20T09:02:23;101774.46;;;7.17;69.82
61761;BME280;47664;51.660;-0.100;2023-02-20T09:04:55;101764.13;;;6.90;70.54
61761;BME280;47664;51.660;-0.100;2023-02-20T09:07:28;101779.60;;;7.00;70.21
61761;BME280;47664;51.660;-0.100;2023-02-20T09:10:01;101783.86;;;7.11;69.59
61761;BME280;47664;51.660;-0.100;2023-02-20T09:12:33;101783.55;;;7.41;69.06
61761;BME280;47664;51.660;-0.100;2023-02-20T09:15:06;101775.59;;;7.09;68.51
61761;BME280;47664;51.660;-0.100;2023-02-20T09:17:38;101777.24;;;6.92;69.67
61761;BME280;47664;51.660;-0.100;2023-02-20T09:20:11;101781.16;;;6.48;70.69
61761;BME280;47664;51.660;-0.100;2023-02-20T09:22:43;101773.51;;;6.76;71.02
61761;BME280;47664;51.660;-0.100;2023-02-20T09:25:16;101762.76;;;7.23;69.41
61761;BME280;47664;51.660;-0.100;2023-02-20T09:27:49;101763.58;;;7.52;68.77
61761;BME280;47664;51.660;-0.100;2023-02-20T09:30:22;101756.56;;;7.14;69.15
61761;BME280;47664;51.660;-0.100;2023-02-20T09:32:55;101768.08;;;7.37;69.89
61761;BME280;47664;51.660;-0.100;2023-02-20T09:35:26;101771.75;;;6.92;70.06
61761;BME280;47664;51.660;-0.100;2023-02-20T09:37:59;101768.57;;;7.29;69.72
61761;BME280;47664;51.660;-0.100;2023-02-20T09:40:33;101767.20;;;7.11;69.59
61761;BME280;47664;51.660;-0.100;2023-02-20T09:43:08;101768.45;;;7.02;68.50
61761;BME280;47664;51.660;-0.100;2023-02-20T09:45:46;101769.35;;;7.59;68.34
61761;BME280;47664;51.660;-0.100;2023-02-20T09:48:25;101777.62;;;7.89;67.70
61761;BME280;47664;51.660;-0.100;2023-02-20T09:51:02;101772.92;;;7.78;67.89
61761;BME280;47664;51.660;-0.100;2023-02-20T09:53:37;101768.58;;;7.58;68.16
61761;BME280;47664;51.660;-0.100;2023-02-20T09:56:13;101771.15;;;7.44;68.38
61761;BME280;47664;51.660;-0.100;2023-02-20T09:58:46;101767.80;;;7.05;69.76
61761;BME280;47664;51.660;-0.100;2023-02-20T10:01:18;101766.58;;;7.49;69.11
61761;BME280;47664;51.660;-0.100;2023-02-20T10:03:53;101766.79;;;7.37;69.37
61761;BME280;47664;51.660;-0.100;2023-02-20T10:06:28;101761.49;;;7.22;69.59
61761;BME280;47664;51.660;-0.100;2023-02-20T10:09:01;101756.23;;;7.55;69.11
61761;BME280;47664;51.660;-0.100;2023-02-20T10:11:40;101746.85;;;7.58;68.99
61761;BME280;47664;51.660;-0.100;2023-02-20T10:14:29;101752.60;;;7.36;68.93
61761;BME280;47664;51.660;-0.100;2023-02-20T10:17:08;101761.67;;;7.44;69.41
61761;BME280;47664;51.660;-0.100;2023-02-20T10:19:44;101764.90;;;7.66;69.27
61761;BME280;47664;51.660;-0.100;2023-02-20T10:22:21;101757.70;;;7.60;68.27
61761;BME280;47664;51.660;-0.100;2023-02-20T10:25:00;101741.27;;;7.72;68.07
61761;BME280;47664;51.660;-0.100;2023-02-20T10:27:40;101739.46;;;7.87;68.48
61761;BME280;47664;51.660;-0.100;2023-02-20T10:30:17;101742.70;;;7.81;67.52
61761;BME280;47664;51.660;-0.100;2023-02-20T10:32:55;101747.28;;;8.07;67.14
61761;BME280;47664;51.660;-0.100;2023-02-20T10:35:30;101748.31;;;8.42;66.24
61761;BME280;47664;51.660;-0.100;2023-02-20T10:38:05;101752.65;;;7.85;67.08
61761;BME280;47664;51.660;-0.100;2023-02-20T10:40:38;101749.54;;;8.04;67.18
61761;BME280;47664;51.660;-0.100;2023-02-20T10:43:13;101747.29;;;7.67;67.51
61761;BME280;47664;51.660;-0.100;2023-02-20T10:45:51;101742.62;;;8.16;67.51
61761;BME280;47664;51.660;-0.100;2023-02-20T10:48:27;101741.43;;;8.30;67.16
61761;BME280;47664;51.660;-0.100;2023-02-20T10:51:03;101736.85;;;8.06;67.10
61761;BME280;47664;51.660;-0.100;2023-02-20T10:53:38;101732.05;;;8.10;67.69
61761;BME280;47664;51.660;-0.100;2023-02-20T10:56:10;101721.67;;;7.66;68.24
61761;BME280;47664;51.660;-0.100;2023-02-20T10:58:48;101699.35;;;8.49;67.58
61761;BME280;47664;51.660;-0.100;2023-02-20T11:01:22;101690.55;;;8.17;67.33
61761;BME280;47664;51.660;-0.100;2023-02-20T11:03:56;101689.85;;;8.21;67.62
61761;BME280;47664;51.660;-0.100;2023-02-20T11:06:29;101692.62;;;8.43;67.50
61761;BME280;47664;51.660;-0.100;2023-02-20T11:09:03;101694.21;;;8.10;66.58
61761;BME280;47664;51.660;-0.100;2023-02-20T11:11:34;101692.29;;;8.79;66.45
61761;BME280;47664;51.660;-0.100;2023-02-20T11:14:10;101689.39;;;8.00;67.13
61761;BME280;47664;51.660;-0.100;2023-02-20T11:16:50;101692.73;;;8.84;66.03
61761;BME280;47664;51.660;-0.100;2023-02-20T11:19:29;101693.72;;;8.58;66.10
61761;BME280;47664;51.660;-0.100;2023-02-20T11:22:03;101692.22;;;8.38;66.72
61761;BME280;47664;51.660;-0.100;2023-02-20T11:24:36;101687.06;;;8.51;66.57
61761;BME280;47664;51.660;-0.100;2023-02-20T11:27:07;101691.13;;;7.88;66.37
61761;BME280;47664;51.660;-0.100;2023-02-20T11:29:41;101684.49;;;8.45;66.98
61761;BME280;47664;51.660;-0.100;2023-02-20T11:32:29;101683.74;;;8.33;66.71
61761;BME280;47664;51.660;-0.100;2023-02-20T11:35:33;101692.52;;;8.43;66.84
61761;BME280;47664;51.660;-0.100;2023-02-20T11:38:34;101693.70;;;8.27;66.45
61761;BME280;47664;51.660;-0.100;2023-02-20T11:41:21;101685.64;;;7.87;66.75
61761;BME280;47664;51.660;-0.100;2023-02-20T11:44:06;101687.35;;;9.21;66.11
61761;BME280;47664;51.660;-0.100;2023-02-20T11:46:39;101700.09;;;9.12;64.41
61761;BME280;47664;51.660;-0.100;2023-02-20T11:49:22;101708.57;;;8.75;63.81
61761;BME280;47664;51.660;-0.100;2023-02-20T11:52:05;101708.88;;;9.30;64.00
61761;BME280;47664;51.660;-0.100;2023-02-20T11:54:38;101716.14;;;9.22;64.28
61761;BME280;47664;51.660;-0.100;2023-02-20T11:57:19;101712.76;;;9.09;64.23
61761;BME280;47664;51.660;-0.100;2023-02-20T12:00:07;101708.62;;;9.66;63.29
61761;BME280;47664;51.660;-0.100;2023-02-20T12:02:47;101711.68;;;10.19;62.13
61761;BME280;47664;51.660;-0.100;2023-02-20T12:05:20;101712.01;;;9.61;62.50
61761;BME280;47664;51.660;-0.100;2023-02-20T12:07:56;101705.38;;;9.84;63.54
61761;BME280;47664;51.660;-0.100;2023-02-20T12:10:33;101698.59;;;9.21;63.57
61761;BME280;47664;51.660;-0.100;2023-02-20T12:13:09;101695.89;;;9.37;63.38
61761;BME280;47664;51.660;-0.100;2023-02-20T12:15:43;101688.37;;;9.94;63.50
61761;BME280;47664;51.660;-0.100;2023-02-20T12:18:25;101676.52;;;9.73;63.94
61761;BME280;47664;51.660;-0.100;2023-02-20T12:21:04;101675.24;;;9.50;64.13
61761;BME280;47664;51.660;-0.100;2023-02-20T12:23:42;101673.61;;;9.33;64.62
61761;BME280;47664;51.660;-0.100;2023-02-20T12:26:23;101666.58;;;9.61;64.21
61761;BME280;47664;51.660;-0.100;2023-02-20T12:28:59;101663.16;;;9.42;63.98
61761;BME280;47664;51.660;-0.100;2023-02-20T12:31:40;101658.57;;;9.81;63.60
61761;BME280;47664;51.660;-0.100;2023-02-20T12:34:24;101659.84;;;9.08;63.73
61761;BME280;47664;51.660;-0.100;2023-02-20T12:37:05;101655.55;;;9.46;64.02
61761;BME280;47664;51.660;-0.100;2023-02-20T12:39:41;101651.95;;;10.08;63.04
61761;BME280;47664;51.660;-0.100;2023-02-20T12:42:18;101655.26;;;9.95;62.84
61761;BME280;47664;51.660;-0.100;2023-02-20T12:45:02;101651.67;;;9.91;63.21
61761;BME280;47664;51.660;-0.100;2023-02-20T12:47:37;101648.80;;;9.87;62.76
61761;BME280;47664;51.660;-0.100;2023-02-20T12:50:41;101645.64;;;9.28;62.60
61761;BME280;47664;51.660;-0.100;2023-02-20T12:53:23;101641.45;;;9.51;63.28
61761;BME280;47664;51.660;-0.100;2023-02-20T12:56:06;101636.20;;;9.81;63.01
61761;BME280;47664;51.660;-0.100;2023-02-20T12:58:46;101627.71;;;10.09;63.23
61761;BME280;47664;51.660;-0.100;2023-02-20T13:01:20;101632.02;;;9.84;62.80
61761;BME280;47664;51.660;-0.100;2023-02-20T13:03:58;101629.70;;;10.24;62.29
61761;BME280;47664;51.660;-0.100;2023-02-20T13:06:33;101625.72;;;9.89;62.59
61761;BME280;47664;51.660;-0.100;2023-02-20T13:09:15;101623.82;;;9.48;62.63
61761;BME280;47664;51.660;-0.100;2023-02-20T13:11:47;101628.36;;;10.57;61.55
61761;BME280;47664;51.660;-0.100;2023-02-20T13:14:29;101629.12;;;10.31;61.12
61761;BME280;47664;51.660;-0.100;2023-02-20T13:17:06;101619.97;;;10.08;61.54
61761;BME280;47664;51.660;-0.100;2023-02-20T13:19:42;101616.80;;;10.19;62.45
61761;BME280;47664;51.660;-0.100;2023-02-20T13:22:17;101620.57;;;10.03;62.22
61761;BME280;47664;51.660;-0.100;2023-02-20T13:24:49;101618.99;;;10.05;62.41
61761;BME280;47664;51.660;-0.100;2023-02-20T13:27:28;101616.67;;;9.84;63.13
61761;BME280;47664;51.660;-0.100;2023-02-20T13:30:11;101614.52;;;10.20;62.76
61761;BME280;47664;51.660;-0.100;2023-02-20T13:32:48;101598.60;;;10.58;62.21